createdAt,value
2023-05-02T00:02:13.522Z,8.20
2023-05-02T00:04:41.825Z,8.22
2023-05-02T00:07:09.886Z,8.22
2023-05-02T00:09:38.210Z,8.24
2023-05-02T00:12:06.328Z,8.22
2023-05-02T00:14:34.348Z,8.21
2023-05-02T00:17:02.452Z,8.21
2023-05-02T00:19:30.487Z,8.21
2023-05-02T00:21:58.406Z,8.17
2023-05-02T00:24:27.130Z,8.13
2023-05-02T00:26:55.088Z,8.09
2023-05-02T00:29:23.182Z,8.04
2023-05-02T00:31:51.184Z,8.04
2023-05-02T00:34:19.106Z,8.05
2023-05-02T00:36:48.331Z,8.03
2023-05-02T00:39:16.747Z,7.94
2023-05-02T00:41:44.771Z,7.92
2023-05-02T00:44:12.792Z,7.86
2023-05-02T00:46:40.741Z,7.82
2023-05-02T00:49:08.827Z,7.78
2023-05-02T00:51:36.852Z,7.73
2023-05-02T00:54:05.769Z,7.77
2023-05-02T00:56:33.886Z,7.81
2023-05-02T00:59:01.908Z,7.88
2023-05-02T01:01:34.929Z,7.94
2023-05-02T01:04:23.739Z,7.95
2023-05-02T01:07:16.642Z,7.95
2023-05-02T01:10:15.377Z,7.91
2023-05-02T01:12:55.734Z,7.86
2023-05-02T01:15:24.052Z,7.82
2023-05-02T01:17:52.761Z,7.80
2023-05-02T01:20:22.906Z,7.80
2023-05-02T01:22:50.918Z,7.77
2023-05-02T01:25:25.064Z,7.75
2023-05-02T01:28:17.767Z,7.81
2023-05-02T01:30:46.294Z,7.86
2023-05-02T01:33:15.442Z,7.85
2023-05-02T01:35:44.136Z,7.84
2023-05-02T01:38:16.206Z,7.83
2023-05-02T01:40:45.192Z,7.82
2023-05-02T01:43:13.315Z,7.79
2023-05-02T01:45:41.434Z,7.73
2023-05-02T01:48:09.955Z,7.68
2023-05-02T01:50:38.076Z,7.63
2023-05-02T01:53:06.103Z,7.59
2023-05-02T01:55:33.963Z,7.57
2023-05-02T01:58:02.034Z,7.57
2023-05-02T02:00:31.760Z,7.58
2023-05-02T02:02:59.990Z,7.59
2023-05-02T02:05:28.310Z,7.56
2023-05-02T02:07:56.430Z,7.46
2023-05-02T02:10:24.540Z,7.40
2023-05-02T02:12:53.862Z,7.38
2023-05-02T02:15:26.196Z,7.36
2023-05-02T02:18:02.494Z,7.32
2023-05-02T02:20:32.076Z,7.22
2023-05-02T02:23:01.197Z,7.16
2023-05-02T02:25:29.229Z,7.07
2023-05-02T02:27:57.345Z,7.01
2023-05-02T02:30:25.466Z,6.99
2023-05-02T02:32:53.614Z,6.98
2023-05-02T02:35:21.700Z,6.97
2023-05-02T02:37:57.592Z,6.95
2023-05-02T02:40:29.786Z,6.92
2023-05-02T02:43:08.646Z,6.92
2023-05-02T02:46:14.629Z,6.95
2023-05-02T02:48:50.640Z,6.97
2023-05-02T02:51:54.580Z,6.97
2023-05-02T02:54:58.089Z,6.95
2023-05-02T02:57:37.380Z,6.98
2023-05-02T03:00:05.909Z,7.03
2023-05-02T03:02:34.208Z,7.06
2023-05-02T03:05:02.654Z,7.12
2023-05-02T03:07:31.660Z,7.15
2023-05-02T03:10:03.309Z,7.21
2023-05-02T03:12:31.915Z,7.27
2023-05-02T03:15:24.287Z,7.29
2023-05-02T03:17:52.983Z,7.30
2023-05-02T03:20:21.375Z,7.32
2023-05-02T03:22:49.528Z,7.31
2023-05-02T03:25:18.120Z,7.32
2023-05-02T03:27:46.935Z,7.36
2023-05-02T03:30:15.171Z,7.39
2023-05-02T03:32:43.372Z,7.47
2023-05-02T03:35:11.993Z,7.56
2023-05-02T03:37:40.914Z,7.65
2023-05-02T03:40:09.643Z,7.73
2023-05-02T03:42:40.262Z,7.82
2023-05-02T03:45:10.394Z,7.91
2023-05-02T03:47:38.872Z,7.99
2023-05-02T03:50:07.886Z,8.04
2023-05-02T03:52:36.679Z,8.11
2023-05-02T03:55:06.064Z,8.20
2023-05-02T03:57:34.716Z,8.29
2023-05-02T04:00:03.111Z,8.37
2023-05-02T04:02:39.719Z,8.45
2023-05-02T04:05:12.112Z,8.53
2023-05-02T04:07:40.536Z,8.61
2023-05-02T04:10:16.501Z,8.70
2023-05-02T04:12:48.013Z,8.81
2023-05-02T04:15:17.041Z,8.97
2023-05-02T04:17:46.852Z,9.13
2023-05-02T04:20:15.996Z,9.28
2023-05-02T04:22:48.230Z,9.43
2023-05-02T04:25:17.163Z,9.59
2023-05-02T04:27:45.463Z,9.73
2023-05-02T04:30:16.586Z,9.87
2023-05-02T04:32:49.455Z,10.01
2023-05-02T04:35:17.850Z,10.16
2023-05-02T04:37:46.972Z,10.30
2023-05-02T04:40:15.892Z,10.45
2023-05-02T04:42:46.420Z,10.59
2023-05-02T04:45:23.667Z,10.74
2023-05-02T04:47:52.241Z,10.87
2023-05-02T04:50:20.834Z,11.01
2023-05-02T04:52:48.856Z,11.15
2023-05-02T04:55:16.963Z,11.29
2023-05-02T04:57:45.676Z,11.45
2023-05-02T05:00:16.427Z,11.61
2023-05-02T05:02:45.153Z,11.75
2023-05-02T05:05:15.080Z,11.90
2023-05-02T05:07:43.686Z,12.05
2023-05-02T05:10:11.939Z,12.24
2023-05-02T05:12:46.576Z,12.44
2023-05-02T05:15:16.067Z,12.63
2023-05-02T05:17:47.757Z,12.84
2023-05-02T05:20:16.015Z,13.11
2023-05-02T05:22:44.044Z,13.36
2023-05-02T05:25:13.359Z,13.57
2023-05-02T05:27:41.687Z,13.74
2023-05-02T05:30:10.973Z,13.91
2023-05-02T05:32:39.191Z,14.07
2023-05-02T05:35:07.848Z,14.23
2023-05-02T05:37:39.589Z,14.38
2023-05-02T05:40:10.217Z,14.52
2023-05-02T05:42:39.446Z,14.64
2023-05-02T05:45:12.774Z,14.75
2023-05-02T05:47:41.251Z,14.88
2023-05-02T05:50:09.728Z,15.01
2023-05-02T05:52:38.571Z,15.12
2023-05-02T05:55:07.355Z,15.23
2023-05-02T05:57:35.481Z,15.34
2023-05-02T06:00:04.216Z,15.48
2023-05-02T06:02:43.729Z,15.60
2023-05-02T06:05:18.403Z,15.75
2023-05-02T06:07:46.526Z,15.90
2023-05-02T06:10:14.850Z,16.04
2023-05-02T06:12:44.280Z,16.19
2023-05-02T06:15:13.995Z,16.34
2023-05-02T06:17:42.342Z,16.50
2023-05-02T06:20:10.940Z,16.67
2023-05-02T06:22:39.862Z,16.83
2023-05-02T06:25:09.081Z,16.98
2023-05-02T06:27:37.104Z,17.12
2023-05-02T06:30:06.256Z,17.24
2023-05-02T06:32:34.297Z,17.36
2023-05-02T06:35:02.369Z,17.46
2023-05-02T06:37:34.911Z,17.56
2023-05-02T06:40:03.525Z,17.65
2023-05-02T06:42:31.858Z,17.73
2023-05-02T06:44:59.860Z,17.80
2023-05-02T06:47:29.116Z,17.87
2023-05-02T06:49:57.388Z,17.95
2023-05-02T06:52:25.525Z,18.03
2023-05-02T06:54:53.554Z,18.12
2023-05-02T06:57:21.662Z,18.18
2023-05-02T06:59:49.682Z,18.26
2023-05-02T07:02:17.701Z,18.31
2023-05-02T07:04:46.393Z,18.34
2023-05-02T07:07:18.878Z,18.37
2023-05-02T07:09:47.192Z,18.42
2023-05-02T07:12:15.326Z,18.47
2023-05-02T07:14:43.718Z,18.53
2023-05-02T07:17:11.876Z,18.52
2023-05-02T07:19:40.160Z,18.56
2023-05-02T07:22:08.190Z,18.59
2023-05-02T07:24:36.902Z,18.61
2023-05-02T07:27:05.620Z,18.69
2023-05-02T07:29:33.740Z,18.76
2023-05-02T07:32:02.479Z,18.80
2023-05-02T07:34:31.087Z,18.86
2023-05-02T07:36:59.207Z,18.95
2023-05-02T07:39:27.528Z,19.05
2023-05-02T07:41:56.856Z,19.12
2023-05-02T07:44:25.074Z,19.22
2023-05-02T07:46:53.195Z,19.28
2023-05-02T07:49:21.413Z,19.34
2023-05-02T07:51:49.635Z,19.40
2023-05-02T07:54:22.639Z,19.49
2023-05-02T07:56:50.791Z,19.60
2023-05-02T07:59:18.814Z,19.67
2023-05-02T08:01:47.137Z,19.67
2023-05-02T08:04:15.570Z,19.71
2023-05-02T08:06:45.196Z,19.72
2023-05-02T08:09:13.402Z,19.75
2023-05-02T08:11:42.221Z,19.86
2023-05-02T08:14:10.240Z,19.93
2023-05-02T08:16:38.463Z,19.98
2023-05-02T08:19:06.478Z,20.00
2023-05-02T08:21:35.007Z,20.10
2023-05-02T08:24:02.950Z,20.15
2023-05-02T08:26:30.940Z,20.19
2023-05-02T08:28:59.061Z,20.23
2023-05-02T08:31:27.209Z,20.32
2023-05-02T08:33:57.509Z,20.41
2023-05-02T08:36:25.732Z,20.50
2023-05-02T08:38:53.769Z,20.51
2023-05-02T08:41:22.375Z,20.66
2023-05-02T08:43:50.689Z,20.69
2023-05-02T08:46:18.654Z,20.78
2023-05-02T08:48:48.492Z,20.87
2023-05-02T08:53:53.008Z,21.05
2023-05-02T08:56:21.526Z,21.10
2023-05-02T08:58:49.648Z,21.08
2023-05-02T09:01:21.525Z,21.13
2023-05-02T09:03:50.136Z,21.14
2023-05-02T09:06:20.041Z,21.32
2023-05-02T09:08:50.151Z,21.47
2023-05-02T09:11:19.275Z,21.56
2023-05-02T09:13:52.359Z,21.65
2023-05-02T09:16:25.919Z,21.72
2023-05-02T09:18:59.682Z,21.79
2023-05-02T09:21:43.462Z,21.88
2023-05-02T09:24:18.393Z,21.92
2023-05-02T09:27:05.756Z,22.03
2023-05-02T09:29:39.076Z,22.19
2023-05-02T09:32:07.453Z,22.27
2023-05-02T09:34:37.668Z,22.32
2023-05-02T09:37:06.558Z,22.36
2023-05-02T09:39:34.593Z,22.39
2023-05-02T09:42:03.639Z,22.45
2023-05-02T09:44:39.398Z,22.58
2023-05-02T09:47:08.869Z,22.63
2023-05-02T09:49:42.530Z,22.66
2023-05-02T09:52:12.912Z,22.59
2023-05-02T09:54:41.314Z,22.60
2023-05-02T09:57:11.210Z,22.61
2023-05-02T09:59:41.005Z,22.68
2023-05-02T10:02:11.768Z,22.78
2023-05-02T10:04:42.088Z,22.82
2023-05-02T10:07:11.652Z,22.74
2023-05-02T10:09:44.812Z,22.83
2023-05-02T10:12:16.893Z,22.92
2023-05-02T10:15:00.707Z,22.98
2023-05-02T10:17:32.474Z,23.00
2023-05-02T10:20:05.318Z,23.04
2023-05-02T10:22:37.141Z,23.06
2023-05-02T10:25:06.796Z,23.13
2023-05-02T10:27:34.948Z,23.12
2023-05-02T10:30:04.818Z,23.16
2023-05-02T10:32:34.817Z,23.12
2023-05-02T10:35:05.250Z,23.12
2023-05-02T10:37:35.845Z,23.11
2023-05-02T10:40:06.086Z,23.12
2023-05-02T10:42:39.345Z,23.21
2023-05-02T10:45:13.537Z,23.29
2023-05-02T10:47:42.003Z,23.33
2023-05-02T10:50:10.496Z,23.41
2023-05-02T10:52:41.301Z,23.34
2023-05-02T10:55:20.781Z,23.36
2023-05-02T10:57:58.557Z,23.43
2023-05-02T11:00:30.275Z,23.44
2023-05-02T11:02:58.692Z,23.41
2023-05-02T11:05:28.025Z,23.32
2023-05-02T11:08:23.210Z,23.19
2023-05-02T11:10:51.645Z,23.19
2023-05-02T11:13:49.271Z,23.25
2023-05-02T11:16:17.646Z,23.26
2023-05-02T11:19:01.604Z,23.37
2023-05-02T11:21:32.922Z,23.35
2023-05-02T11:24:41.779Z,23.28
2023-05-02T11:27:38.629Z,23.22
2023-05-02T11:30:09.329Z,23.26
2023-05-02T11:32:50.358Z,23.35
2023-05-02T11:35:20.784Z,23.38
2023-05-02T11:38:04.015Z,23.45
2023-05-02T11:40:32.703Z,23.45
2023-05-02T11:43:01.536Z,23.42
2023-05-02T11:45:36.327Z,23.36
2023-05-02T11:48:05.814Z,23.25
2023-05-02T11:50:49.685Z,23.14
2023-05-02T11:53:25.027Z,23.20
2023-05-02T11:55:55.341Z,23.24
2023-05-02T11:58:25.709Z,23.20
2023-05-02T12:00:54.191Z,23.15
2023-05-02T12:03:30.954Z,23.16
2023-05-02T12:06:14.889Z,23.07
2023-05-02T12:08:44.710Z,22.97
2023-05-02T12:11:15.636Z,22.90
2023-05-02T12:13:50.616Z,22.88
2023-05-02T12:16:19.569Z,22.82
2023-05-02T12:18:49.004Z,22.76
2023-05-02T12:21:18.282Z,22.73
2023-05-02T12:23:46.959Z,22.76
2023-05-02T12:26:25.404Z,22.80
2023-05-02T12:28:59.053Z,22.70
2023-05-02T12:31:31.620Z,22.68
2023-05-02T12:34:01.510Z,22.70
2023-05-02T12:36:29.993Z,22.70
2023-05-02T12:39:00.035Z,22.72
2023-05-02T12:41:31.242Z,22.73
2023-05-02T12:44:00.868Z,22.67
2023-05-02T12:46:30.006Z,22.76
2023-05-02T12:49:12.446Z,22.81
2023-05-02T12:51:41.402Z,22.81
2023-05-02T12:54:21.349Z,22.72
2023-05-02T12:56:52.136Z,22.64
2023-05-02T12:59:28.923Z,22.64
2023-05-02T13:01:57.649Z,22.77
2023-05-02T13:04:40.862Z,22.86
2023-05-02T13:07:09.134Z,23.10
2023-05-02T13:09:37.708Z,23.30
2023-05-02T13:12:06.306Z,23.51
2023-05-02T13:14:34.359Z,23.61
2023-05-02T13:17:02.552Z,23.74
2023-05-02T13:19:31.580Z,23.93
2023-05-02T13:21:59.864Z,24.16
2023-05-02T13:24:28.101Z,24.36
2023-05-02T13:26:56.307Z,24.50
2023-05-02T13:29:24.441Z,24.66
2023-05-02T13:31:52.271Z,24.84
2023-05-02T13:34:20.361Z,24.98
2023-05-02T13:36:48.390Z,24.68
2023-05-02T13:39:16.902Z,24.40
2023-05-02T13:41:45.122Z,24.07
2023-05-02T13:44:13.073Z,23.69
2023-05-02T13:46:41.284Z,23.33
2023-05-02T13:49:09.385Z,23.11
2023-05-02T13:51:37.480Z,22.84
2023-05-02T13:54:05.929Z,22.52
2023-05-02T13:56:34.058Z,22.33
2023-05-02T13:59:01.995Z,22.10
2023-05-02T14:01:30.003Z,21.87
2023-05-02T14:03:58.325Z,21.73
2023-05-02T14:06:26.682Z,21.56
2023-05-02T14:08:54.944Z,21.41
2023-05-02T14:11:22.973Z,21.29
2023-05-02T14:13:51.086Z,21.23
2023-05-02T14:16:19.456Z,21.13
2023-05-02T14:18:47.468Z,21.02
2023-05-02T14:21:16.053Z,21.00
2023-05-02T14:23:44.066Z,20.92
2023-05-02T14:26:12.890Z,20.82
2023-05-02T14:28:41.437Z,20.70
2023-05-02T14:31:09.714Z,20.44
2023-05-02T14:33:37.751Z,20.39
2023-05-02T14:36:06.072Z,20.28
2023-05-02T14:38:33.991Z,20.23
2023-05-02T14:41:03.417Z,20.21
2023-05-02T14:43:34.964Z,20.19
2023-05-02T14:46:04.196Z,20.14
2023-05-02T14:48:32.287Z,19.99
2023-05-02T14:51:04.309Z,19.99
2023-05-02T14:53:32.542Z,20.01
2023-05-02T14:56:00.778Z,19.99
2023-05-02T14:58:28.985Z,19.91
2023-05-02T15:00:57.142Z,19.89
2023-05-02T15:03:25.453Z,19.87
2023-05-02T15:05:53.746Z,19.83
2023-05-02T15:08:21.969Z,19.74
2023-05-02T15:10:49.999Z,19.74
2023-05-02T15:13:18.209Z,19.69
2023-05-02T15:15:47.733Z,19.69
2023-05-02T15:18:16.074Z,19.64
2023-05-02T15:20:44.783Z,19.68
2023-05-02T15:23:12.794Z,19.64
2023-05-02T15:25:41.016Z,19.70
2023-05-02T15:28:09.036Z,19.76
2023-05-02T15:30:37.258Z,19.87
2023-05-02T15:33:05.641Z,19.91
2023-05-02T15:35:33.808Z,19.92
2023-05-02T15:38:01.819Z,19.92
2023-05-02T15:40:30.037Z,19.95
2023-05-02T15:42:58.169Z,20.11
2023-05-02T15:45:26.296Z,20.34
2023-05-02T15:47:54.425Z,20.36
2023-05-02T15:50:22.919Z,20.22
2023-05-02T15:52:51.083Z,20.02
2023-05-02T15:55:19.170Z,19.97
2023-05-02T15:57:47.485Z,19.89
2023-05-02T16:00:17.063Z,19.85
2023-05-02T16:02:45.336Z,19.71
2023-05-02T16:05:13.743Z,19.68
2023-05-02T16:07:41.861Z,19.76
2023-05-02T16:10:10.238Z,19.86
2023-05-02T16:12:38.307Z,19.91
2023-05-02T16:15:08.473Z,19.89
2023-05-02T16:17:36.664Z,19.97
2023-05-02T16:20:05.701Z,19.96
2023-05-02T16:22:33.910Z,19.80
2023-05-02T16:25:02.210Z,19.66
2023-05-02T16:27:30.434Z,19.56
2023-05-02T16:29:59.065Z,19.44
2023-05-02T16:32:28.320Z,19.28
2023-05-02T16:34:56.402Z,19.01
2023-05-02T16:37:24.529Z,18.78
2023-05-02T16:39:52.542Z,18.58
2023-05-02T16:42:20.866Z,18.35
2023-05-02T16:44:48.781Z,18.14
2023-05-02T16:47:16.855Z,17.84
2023-05-02T16:49:45.740Z,17.52
2023-05-02T16:52:13.944Z,17.25
2023-05-02T16:54:41.965Z,17.02
2023-05-02T16:57:10.985Z,16.77
2023-05-02T16:59:39.001Z,16.53
2023-05-02T17:02:06.933Z,16.28
2023-05-02T17:04:35.046Z,16.00
2023-05-02T17:07:03.063Z,15.72
2023-05-02T17:09:31.291Z,15.40
2023-05-02T17:11:59.314Z,15.11
2023-05-02T17:14:27.322Z,14.86
2023-05-02T17:16:55.484Z,14.64
2023-05-02T17:19:24.462Z,14.41
2023-05-02T17:21:56.800Z,14.18
2023-05-02T17:24:25.319Z,13.97
2023-05-02T17:26:53.240Z,13.75
2023-05-02T17:29:21.362Z,13.56
2023-05-02T17:31:49.394Z,13.38
2023-05-02T17:34:17.503Z,13.19
2023-05-02T17:36:46.629Z,13.08
2023-05-02T17:39:16.048Z,13.01
2023-05-02T17:41:44.032Z,12.93
2023-05-02T17:44:12.090Z,12.85
2023-05-02T17:46:40.186Z,12.75
2023-05-02T17:49:08.630Z,12.67
2023-05-02T17:51:36.646Z,12.54
2023-05-02T17:54:04.764Z,12.38
2023-05-02T17:56:35.261Z,12.25
2023-05-02T17:59:05.080Z,12.10
2023-05-02T18:01:33.262Z,12.01
2023-05-02T18:04:04.171Z,11.89
2023-05-02T18:06:32.511Z,11.78
2023-05-02T18:09:00.914Z,11.66
2023-05-02T18:11:38.771Z,11.54
2023-05-02T18:14:07.290Z,11.42
2023-05-02T18:16:36.599Z,11.31
2023-05-02T18:19:04.836Z,11.25
2023-05-02T18:21:35.476Z,11.23
2023-05-02T18:24:03.885Z,11.24
2023-05-02T18:26:31.910Z,11.19
2023-05-02T18:28:59.926Z,11.17
2023-05-02T18:31:28.029Z,11.13
2023-05-02T18:33:56.276Z,11.09
2023-05-02T18:36:27.343Z,11.02
2023-05-02T18:38:56.012Z,10.96
2023-05-02T18:41:24.133Z,10.91
2023-05-02T18:43:53.367Z,10.83
2023-05-02T18:46:21.347Z,10.74
2023-05-02T18:48:49.505Z,10.69
2023-05-02T18:51:17.519Z,10.66
2023-05-02T18:53:45.536Z,10.65
2023-05-02T18:56:17.157Z,10.66
2023-05-02T18:58:46.290Z,10.64
2023-05-02T19:01:16.053Z,10.61
2023-05-02T19:03:44.500Z,10.60
2023-05-02T19:06:13.840Z,10.61
2023-05-02T19:08:42.602Z,10.61
2023-05-02T19:11:10.605Z,10.65
2023-05-02T19:13:39.227Z,10.61
2023-05-02T19:16:12.510Z,10.55
2023-05-02T19:18:41.130Z,10.52
2023-05-02T19:21:15.641Z,10.51
2023-05-02T19:23:44.840Z,10.52
2023-05-02T19:26:13.957Z,10.56
2023-05-02T19:28:43.278Z,10.58
2023-05-02T19:31:12.807Z,10.59
2023-05-02T19:33:41.813Z,10.60
2023-05-02T19:36:10.772Z,10.59
2023-05-02T19:38:38.892Z,10.53
2023-05-02T19:41:07.636Z,10.44
2023-05-02T19:43:35.731Z,10.33
2023-05-02T19:46:03.801Z,10.26
2023-05-02T19:48:31.972Z,10.19
2023-05-02T19:51:04.718Z,10.16
2023-05-02T19:53:37.149Z,10.11
2023-05-02T19:56:08.869Z,10.15
2023-05-02T19:58:37.000Z,10.13
2023-05-02T20:01:05.242Z,10.04
2023-05-02T20:03:35.028Z,9.96
2023-05-02T20:06:03.642Z,9.93
2023-05-02T20:08:31.983Z,9.88
2023-05-02T20:11:00.005Z,9.84
2023-05-02T20:13:28.226Z,9.79
2023-05-02T20:15:56.244Z,9.74
2023-05-02T20:18:24.264Z,9.68
2023-05-02T20:20:52.279Z,9.70
2023-05-02T20:23:20.302Z,9.68
2023-05-02T20:25:48.315Z,9.61
2023-05-02T20:28:16.469Z,9.58
2023-05-02T20:30:44.665Z,9.52
2023-05-02T20:33:16.463Z,9.47
2023-05-02T20:35:45.654Z,9.44
2023-05-02T20:38:13.738Z,9.41
2023-05-02T20:40:43.562Z,9.36
2023-05-02T20:43:12.570Z,9.27
2023-05-02T20:45:40.724Z,9.16
2023-05-02T20:48:08.917Z,9.05
2023-05-02T20:50:37.263Z,9.02
2023-05-02T20:53:05.266Z,8.99
2023-05-02T20:55:35.947Z,8.97
2023-05-02T20:58:04.013Z,8.89
2023-05-02T21:00:32.431Z,8.72
2023-05-02T21:03:00.578Z,8.56
2023-05-02T21:05:28.782Z,8.42
2023-05-02T21:07:56.795Z,8.25
2023-05-02T21:10:27.825Z,8.20
2023-05-02T21:12:55.864Z,8.18
2023-05-02T21:15:23.967Z,8.18
2023-05-02T21:18:00.390Z,8.10
2023-05-02T21:20:28.533Z,8.02
2023-05-02T21:22:56.694Z,7.97
2023-05-02T21:25:25.509Z,7.90
2023-05-02T21:27:53.550Z,7.86
2023-05-02T21:30:21.619Z,7.85
2023-05-02T21:32:49.673Z,7.76
2023-05-02T21:35:18.062Z,7.69
2023-05-02T21:37:46.070Z,7.69
2023-05-02T21:40:14.224Z,7.70
2023-05-02T21:42:42.330Z,7.74
2023-05-02T21:45:11.435Z,7.79
2023-05-02T21:47:39.464Z,7.78
2023-05-02T21:50:08.075Z,7.80
2023-05-02T21:52:36.397Z,7.80
2023-05-02T21:55:04.822Z,7.85
2023-05-02T21:57:32.837Z,7.92
2023-05-02T22:00:01.272Z,7.97
2023-05-02T22:02:29.691Z,7.98
2023-05-02T22:04:58.009Z,7.98
2023-05-02T22:07:26.424Z,7.97
2023-05-02T22:09:54.645Z,7.97
2023-05-02T22:12:24.463Z,7.98
2023-05-02T22:14:52.490Z,8.00
2023-05-02T22:17:22.895Z,8.05
2023-05-02T22:19:54.349Z,8.12
2023-05-02T22:22:22.376Z,8.15
2023-05-02T22:24:50.417Z,8.17
2023-05-02T22:27:18.435Z,8.16
2023-05-02T22:29:46.422Z,8.14
2023-05-02T22:32:14.557Z,8.11
2023-05-02T22:34:42.773Z,8.10
2023-05-02T22:37:10.789Z,8.10
2023-05-02T22:39:38.913Z,8.05
2023-05-02T22:42:06.931Z,8.00
2023-05-02T22:44:46.687Z,7.97
2023-05-02T22:47:19.220Z,7.98
2023-05-02T22:49:47.744Z,7.97
2023-05-02T22:52:15.910Z,7.98
2023-05-02T22:54:44.941Z,7.98
2023-05-02T22:57:13.010Z,7.96
2023-05-02T22:59:41.133Z,7.89
2023-05-02T23:02:11.985Z,7.83
2023-05-02T23:04:40.100Z,7.81
2023-05-02T23:07:08.090Z,7.78
2023-05-02T23:09:36.211Z,7.80
2023-05-02T23:12:05.756Z,7.73
2023-05-02T23:14:33.969Z,7.65
2023-05-02T23:17:03.526Z,7.55
2023-05-02T23:19:31.598Z,7.46
2023-05-02T23:21:59.930Z,7.39
2023-05-02T23:24:28.341Z,7.32
2023-05-02T23:26:56.461Z,7.26
2023-05-02T23:29:25.485Z,7.23
2023-05-02T23:31:54.671Z,7.21
2023-05-02T23:34:23.037Z,7.19
2023-05-02T23:36:52.355Z,7.18
2023-05-02T23:39:20.403Z,7.18
2023-05-02T23:41:48.501Z,7.17
2023-05-02T23:44:16.614Z,7.08
2023-05-02T23:46:44.976Z,7.01
2023-05-02T23:49:13.053Z,6.94
2023-05-02T23:51:41.881Z,6.92
2023-05-02T23:54:09.905Z,6.90
2023-05-02T23:56:37.913Z,6.93
2023-05-02T23:59:05.952Z,6.94
